sensor_id;sensor_type;location;lat;lon;timestamp;temperature;humidity
67275;DHT22;55463;52.324;5.122;2023-07-31T00:00:04;16.51;99.99
67275;DHT22;55463;52.324;5.122;2023-07-31T00:02:29;16.57;99.99
67275;DHT22;55463;52.324;5.122;2023-07-31T00:04:55;16.63;99.99
67275;DHT22;55463;52.324;5.122;2023-07-31T00:07:20;16.67;99.99
67275;DHT22;55463;52.324;5.122;2023-07-31T00:09:46;16.72;99.99
67275;DHT22;55463;52.324;5.122;2023-07-31T00:12:14;16.77;99.99
67275;DHT22;55463;52.324;5.122;2023-07-31T00:14:39;16.80;99.99
67275;DHT22;55463;52.324;5.122;2023-07-31T00:17:05;16.81;99.99
67275;DHT22;55463;52.324;5.122;2023-07-31T00:19:30;16.84;99.99
67275;DHT22;55463;52.324;5.122;2023-07-31T00:21:55;16.85;99.99
67275;DHT22;55463;52.324;5.122;2023-07-31T00:24:21;16.90;99.99
67275;DHT22;55463;52.324;5.122;2023-07-31T00:26:46;16.94;99.99
67275;DHT22;55463;52.324;5.122;2023-07-31T00:29:11;16.91;99.99
67275;DHT22;55463;52.324;5.122;2023-07-31T00:31:37;16.91;99.99
67275;DHT22;55463;52.324;5.122;2023-07-31T00:34:02;16.94;99.99
67275;DHT22;55463;52.324;5.122;2023-07-31T00:36:27;16.93;99.99
67275;DHT22;55463;52.324;5.122;2023-07-31T00:38:53;16.91;99.99
67275;DHT22;55463;52.324;5.122;2023-07-31T00:41:18;16.93;99.99
67275;DHT22;55463;52.324;5.122;2023-07-31T00:43:43;16.88;99.99
67275;DHT22;55463;52.324;5.122;2023-07-31T00:46:09;16.85;99.99
67275;DHT22;55463;52.324;5.122;2023-07-31T00:48:35;16.85;99.99
67275;DHT22;55463;52.324;5.122;2023-07-31T00:51:01;16.83;99.99
67275;DHT22;55463;52.324;5.122;2023-07-31T00:53:27;16.85;99.99
67275;DHT22;55463;52.324;5.122;2023-07-31T00:55:53;16.85;99.99
67275;DHT22;55463;52.324;5.122;2023-07-31T00:58:18;16.85;99.99
67275;DHT22;55463;52.324;5.122;2023-07-31T01:00:43;16.87;99.99
67275;DHT22;55463;52.324;5.122;2023-07-31T01:03:09;16.88;99.99
67275;DHT22;55463;52.324;5.122;2023-07-31T01:05:56;16.88;99.99
67275;DHT22;55463;52.324;5.122;2023-07-31T01:08:55;16.90;99.99
67275;DHT22;55463;52.324;5.122;2023-07-31T01:11:28;16.91;99.99
67275;DHT22;55463;52.324;5.122;2023-07-31T01:13:55;16.90;99.99
67275;DHT22;55463;52.324;5.122;2023-07-31T01:16:20;16.90;99.99
67275;DHT22;55463;52.324;5.122;2023-07-31T01:18:46;16.88;99.99
67275;DHT22;55463;52.324;5.122;2023-07-31T01:21:36;16.88;99.99
67275;DHT22;55463;52.324;5.122;2023-07-31T01:27:23;16.83;99.99
67275;DHT22;55463;52.324;5.122;2023-07-31T01:30:16;16.81;99.99
67275;DHT22;55463;52.324;5.122;2023-07-31T01:32:47;16.81;99.99
67275;DHT22;55463;52.324;5.122;2023-07-31T01:35:12;16.80;99.99
67275;DHT22;55463;52.324;5.122;2023-07-31T01:37:38;16.80;99.99
67275;DHT22;55463;52.324;5.122;2023-07-31T01:40:04;16.81;99.99
67275;DHT22;55463;52.324;5.122;2023-07-31T01:42:30;16.81;99.99
67275;DHT22;55463;52.324;5.122;2023-07-31T01:44:55;16.80;99.99
67275;DHT22;55463;52.324;5.122;2023-07-31T01:47:21;16.80;99.99
67275;DHT22;55463;52.324;5.122;2023-07-31T01:49:46;16.81;99.99
67275;DHT22;55463;52.324;5.122;2023-07-31T01:52:13;16.84;99.99
67275;DHT22;55463;52.324;5.122;2023-07-31T01:54:38;16.84;99.99
67275;DHT22;55463;52.324;5.122;2023-07-31T01:57:04;16.85;99.99
67275;DHT22;55463;52.324;5.122;2023-07-31T01:59:29;16.85;99.99
67275;DHT22;55463;52.324;5.122;2023-07-31T02:01:54;16.87;99.99
67275;DHT22;55463;52.324;5.122;2023-07-31T02:04:20;16.84;99.99
67275;DHT22;55463;52.324;5.122;2023-07-31T02:06:45;16.85;99.99
67275;DHT22;55463;52.324;5.122;2023-07-31T02:09:10;16.87;99.99
67275;DHT22;55463;52.324;5.122;2023-07-31T02:11:36;16.90;99.99
67275;DHT22;55463;52.324;5.122;2023-07-31T02:14:01;16.90;99.99
67275;DHT22;55463;52.324;5.122;2023-07-31T02:16:26;16.91;99.99
67275;DHT22;55463;52.324;5.122;2023-07-31T02:18:52;16.91;99.99
67275;DHT22;55463;52.324;5.122;2023-07-31T02:21:17;16.91;99.99
67275;DHT22;55463;52.324;5.122;2023-07-31T02:23:43;16.90;99.99
67275;DHT22;55463;52.324;5.122;2023-07-31T02:26:11;16.93;99.99
67275;DHT22;55463;52.324;5.122;2023-07-31T02:28:36;16.91;99.99
67275;DHT22;55463;52.324;5.122;2023-07-31T02:31:02;16.91;99.99
67275;DHT22;55463;52.324;5.122;2023-07-31T02:33:27;16.90;99.99
67275;DHT22;55463;52.324;5.122;2023-07-31T02:35:53;16.90;99.99
67275;DHT22;55463;52.324;5.122;2023-07-31T02:38:18;16.87;99.99
67275;DHT22;55463;52.324;5.122;2023-07-31T02:40:44;16.87;99.99
67275;DHT22;55463;52.324;5.122;2023-07-31T02:43:12;16.88;99.99
67275;DHT22;55463;52.324;5.122;2023-07-31T02:45:37;16.85;99.99
67275;DHT22;55463;52.324;5.122;2023-07-31T02:48:03;16.85;99.99
67275;DHT22;55463;52.324;5.122;2023-07-31T02:50:28;16.83;99.99
67275;DHT22;55463;52.324;5.122;2023-07-31T02:52:54;16.81;99.99
67275;DHT22;55463;52.324;5.122;2023-07-31T02:55:19;16.84;99.99
67275;DHT22;55463;52.324;5.122;2023-07-31T02:57:44;16.84;99.99
67275;DHT22;55463;52.324;5.122;2023-07-31T03:00:10;16.87;99.99
67275;DHT22;55463;52.324;5.122;2023-07-31T03:02:35;16.81;99.99
67275;DHT22;55463;52.324;5.122;2023-07-31T03:05:01;16.83;99.99
67275;DHT22;55463;52.324;5.122;2023-07-31T03:07:26;16.79;99.99
67275;DHT22;55463;52.324;5.122;2023-07-31T03:09:52;16.81;99.99
67275;DHT22;55463;52.324;5.122;2023-07-31T03:12:18;16.84;99.99
67275;DHT22;55463;52.324;5.122;2023-07-31T03:14:44;16.81;99.99
67275;DHT22;55463;52.324;5.122;2023-07-31T03:17:10;16.84;99.99
67275;DHT22;55463;52.324;5.122;2023-07-31T03:19:35;16.83;99.99
67275;DHT22;55463;52.324;5.122;2023-07-31T03:22:00;16.84;99.99
67275;DHT22;55463;52.324;5.122;2023-07-31T03:24:26;16.84;99.99
67275;DHT22;55463;52.324;5.122;2023-07-31T03:26:51;16.87;99.99
67275;DHT22;55463;52.324;5.122;2023-07-31T03:29:17;16.84;99.99
67275;DHT22;55463;52.324;5.122;2023-07-31T03:31:42;16.88;99.61
67275;DHT22;55463;52.324;5.122;2023-07-31T03:34:07;16.90;99.69
67275;DHT22;55463;52.324;5.122;2023-07-31T03:36:33;16.91;99.86
67275;DHT22;55463;52.324;5.122;2023-07-31T03:38:58;16.90;99.79
67275;DHT22;55463;52.324;5.122;2023-07-31T03:41:23;16.91;99.99
67275;DHT22;55463;52.324;5.122;2023-07-31T03:43:50;16.93;99.73
67275;DHT22;55463;52.324;5.122;2023-07-31T03:46:21;16.91;99.99
67275;DHT22;55463;52.324;5.122;2023-07-31T03:48:47;16.90;99.99
67275;DHT22;55463;52.324;5.122;2023-07-31T03:51:12;16.85;99.93
67275;DHT22;55463;52.324;5.122;2023-07-31T03:53:37;16.88;99.99
67275;DHT22;55463;52.324;5.122;2023-07-31T03:56:03;16.83;99.81
67275;DHT22;55463;52.324;5.122;2023-07-31T03:58:28;16.85;99.84
67275;DHT22;55463;52.324;5.122;2023-07-31T04:00:54;16.85;99.75
67275;DHT22;55463;52.324;5.122;2023-07-31T04:03:19;16.84;99.71
67275;DHT22;55463;52.324;5.122;2023-07-31T04:05:45;16.81;99.67
67275;DHT22;55463;52.324;5.122;2023-07-31T04:08:10;16.83;99.77
67275;DHT22;55463;52.324;5.122;2023-07-31T04:10:35;16.81;99.72
67275;DHT22;55463;52.324;5.122;2023-07-31T04:13:01;16.80;99.77
67275;DHT22;55463;52.324;5.122;2023-07-31T04:15:26;16.80;99.92
67275;DHT22;55463;52.324;5.122;2023-07-31T04:17:51;16.77;99.99
67275;DHT22;55463;52.324;5.122;2023-07-31T04:20:17;16.74;99.99
67275;DHT22;55463;52.324;5.122;2023-07-31T04:22:42;16.70;99.99
67275;DHT22;55463;52.324;5.122;2023-07-31T04:25:08;16.74;99.99
67275;DHT22;55463;52.324;5.122;2023-07-31T04:27:33;16.70;99.99
67275;DHT22;55463;52.324;5.122;2023-07-31T04:29:58;16.70;99.99
67275;DHT22;55463;52.324;5.122;2023-07-31T04:32:24;16.73;99.99
67275;DHT22;55463;52.324;5.122;2023-07-31T04:34:49;16.72;99.99
67275;DHT22;55463;52.324;5.122;2023-07-31T04:37:15;16.74;99.99
67275;DHT22;55463;52.324;5.122;2023-07-31T04:39:40;16.76;99.99
67275;DHT22;55463;52.324;5.122;2023-07-31T04:42:05;16.74;99.99
67275;DHT22;55463;52.324;5.122;2023-07-31T04:44:31;16.76;99.99
67275;DHT22;55463;52.324;5.122;2023-07-31T04:46:56;16.74;99.99
67275;DHT22;55463;52.324;5.122;2023-07-31T04:49:22;16.76;99.99
67275;DHT22;55463;52.324;5.122;2023-07-31T04:51:47;16.74;99.99
67275;DHT22;55463;52.324;5.122;2023-07-31T04:54:12;16.72;99.99
67275;DHT22;55463;52.324;5.122;2023-07-31T04:56:40;16.74;99.99
67275;DHT22;55463;52.324;5.122;2023-07-31T04:59:06;16.74;99.99
67275;DHT22;55463;52.324;5.122;2023-07-31T05:01:31;16.72;99.99
67275;DHT22;55463;52.324;5.122;2023-07-31T05:03:57;16.73;99.99
67275;DHT22;55463;52.324;5.122;2023-07-31T05:06:22;16.72;99.99
67275;DHT22;55463;52.324;5.122;2023-07-31T05:08:47;16.72;99.99
67275;DHT22;55463;52.324;5.122;2023-07-31T05:11:13;16.72;99.99
67275;DHT22;55463;52.324;5.122;2023-07-31T05:13:38;16.69;99.99
67275;DHT22;55463;52.324;5.122;2023-07-31T05:16:03;16.65;99.99
67275;DHT22;55463;52.324;5.122;2023-07-31T05:18:29;16.63;99.99
67275;DHT22;55463;52.324;5.122;2023-07-31T05:20:54;16.60;99.99
67275;DHT22;55463;52.324;5.122;2023-07-31T05:23:19;16.57;99.99
67275;DHT22;55463;52.324;5.122;2023-07-31T05:25:45;16.55;99.99
67275;DHT22;55463;52.324;5.122;2023-07-31T05:28:12;16.49;99.99
67275;DHT22;55463;52.324;5.122;2023-07-31T05:30:37;16.48;99.99
67275;DHT22;55463;52.324;5.122;2023-07-31T05:33:03;16.45;99.99
67275;DHT22;55463;52.324;5.122;2023-07-31T05:35:28;16.44;99.99
67275;DHT22;55463;52.324;5.122;2023-07-31T05:37:53;16.46;99.99
67275;DHT22;55463;52.324;5.122;2023-07-31T05:40:19;16.48;99.99
67275;DHT22;55463;52.324;5.122;2023-07-31T05:42:44;16.46;99.99
67275;DHT22;55463;52.324;5.122;2023-07-31T05:45:10;16.45;99.99
67275;DHT22;55463;52.324;5.122;2023-07-31T05:47:35;16.49;99.99
67275;DHT22;55463;52.324;5.122;2023-07-31T05:50:01;16.51;99.99
67275;DHT22;55463;52.324;5.122;2023-07-31T05:52:26;16.51;99.99
67275;DHT22;55463;52.324;5.122;2023-07-31T05:54:52;16.52;99.99
67275;DHT22;55463;52.324;5.122;2023-07-31T05:57:17;16.49;99.99
67275;DHT22;55463;52.324;5.122;2023-07-31T05:59:42;16.52;99.99
67275;DHT22;55463;52.324;5.122;2023-07-31T06:02:08;16.44;99.99
67275;DHT22;55463;52.324;5.122;2023-07-31T06:04:33;16.42;99.99
67275;DHT22;55463;52.324;5.122;2023-07-31T06:06:59;16.41;99.99
67275;DHT22;55463;52.324;5.122;2023-07-31T06:09:25;16.41;99.99
67275;DHT22;55463;52.324;5.122;2023-07-31T06:11:51;16.42;99.99
67275;DHT22;55463;52.324;5.122;2023-07-31T06:14:16;16.46;99.99
67275;DHT22;55463;52.324;5.122;2023-07-31T06:16:41;16.46;99.99
67275;DHT22;55463;52.324;5.122;2023-07-31T06:19:07;16.49;99.99
67275;DHT22;55463;52.324;5.122;2023-07-31T06:21:33;16.49;99.99
67275;DHT22;55463;52.324;5.122;2023-07-31T06:23:58;16.53;99.99
67275;DHT22;55463;52.324;5.122;2023-07-31T06:26:23;16.55;99.99
67275;DHT22;55463;52.324;5.122;2023-07-31T06:28:49;16.56;99.99
67275;DHT22;55463;52.324;5.122;2023-07-31T06:31:14;16.57;99.99
67275;DHT22;55463;52.324;5.122;2023-07-31T06:33:40;16.59;99.99
67275;DHT22;55463;52.324;5.122;2023-07-31T06:36:05;16.57;99.99
67275;DHT22;55463;52.324;5.122;2023-07-31T06:38:31;16.60;99.99
67275;DHT22;55463;52.324;5.122;2023-07-31T06:40:56;16.69;99.99
67275;DHT22;55463;52.324;5.122;2023-07-31T06:43:21;16.69;99.99
67275;DHT22;55463;52.324;5.122;2023-07-31T06:45:47;16.70;99.99
67275;DHT22;55463;52.324;5.122;2023-07-31T06:48:15;16.69;99.99
67275;DHT22;55463;52.324;5.122;2023-07-31T06:50:41;16.73;99.99
67275;DHT22;55463;52.324;5.122;2023-07-31T06:53:09;16.69;99.99
67275;DHT22;55463;52.324;5.122;2023-07-31T06:55:34;16.74;99.99
67275;DHT22;55463;52.324;5.122;2023-07-31T06:58:00;16.80;99.99
67275;DHT22;55463;52.324;5.122;2023-07-31T07:00:25;16.84;99.99
67275;DHT22;55463;52.324;5.122;2023-07-31T07:02:51;16.88;99.99
67275;DHT22;55463;52.324;5.122;2023-07-31T07:05:17;16.93;99.99
67275;DHT22;55463;52.324;5.122;2023-07-31T07:07:42;17.00;99.99
67275;DHT22;55463;52.324;5.122;2023-07-31T07:10:09;17.01;99.99
67275;DHT22;55463;52.324;5.122;2023-07-31T07:12:34;17.08;99.99
67275;DHT22;55463;52.324;5.122;2023-07-31T07:15:00;17.07;99.99
67275;DHT22;55463;52.324;5.122;2023-07-31T07:17:27;17.07;99.99
67275;DHT22;55463;52.324;5.122;2023-07-31T07:19:53;17.07;99.99
67275;DHT22;55463;52.324;5.122;2023-07-31T07:22:21;17.07;99.99
67275;DHT22;55463;52.324;5.122;2023-07-31T07:24:46;17.11;99.99
67275;DHT22;55463;52.324;5.122;2023-07-31T07:27:12;17.15;99.99
67275;DHT22;55463;52.324;5.122;2023-07-31T07:29:38;17.14;99.99
67275;DHT22;55463;52.324;5.122;2023-07-31T07:32:03;17.15;99.99
67275;DHT22;55463;52.324;5.122;2023-07-31T07:34:29;17.17;99.99
67275;DHT22;55463;52.324;5.122;2023-07-31T07:36:55;17.22;99.99
67275;DHT22;55463;52.324;5.122;2023-07-31T07:39:20;17.25;99.99
67275;DHT22;55463;52.324;5.122;2023-07-31T07:41:46;17.27;99.99
67275;DHT22;55463;52.324;5.122;2023-07-31T07:44:12;17.29;99.99
67275;DHT22;55463;52.324;5.122;2023-07-31T07:46:37;17.34;99.99
67275;DHT22;55463;52.324;5.122;2023-07-31T07:49:03;17.32;99.99
67275;DHT22;55463;52.324;5.122;2023-07-31T07:51:28;17.38;99.99
67275;DHT22;55463;52.324;5.122;2023-07-31T07:53:55;17.40;99.99
67275;DHT22;55463;52.324;5.122;2023-07-31T07:56:21;17.40;99.99
67275;DHT22;55463;52.324;5.122;2023-07-31T07:58:49;17.48;99.99
67275;DHT22;55463;52.324;5.122;2023-07-31T08:01:15;17.48;99.99
67275;DHT22;55463;52.324;5.122;2023-07-31T08:03:40;17.52;99.99
67275;DHT22;55463;52.324;5.122;2023-07-31T08:06:05;17.52;99.99
67275;DHT22;55463;52.324;5.122;2023-07-31T08:08:31;17.52;99.99
67275;DHT22;55463;52.324;5.122;2023-07-31T08:10:56;17.56;99.99
67275;DHT22;55463;52.324;5.122;2023-07-31T08:13:21;17.56;99.99
67275;DHT22;55463;52.324;5.122;2023-07-31T08:15:47;17.63;99.99
67275;DHT22;55463;52.324;5.122;2023-07-31T08:18:12;17.69;99.99
67275;DHT22;55463;52.324;5.122;2023-07-31T08:20:37;17.74;99.99
67275;DHT22;55463;52.324;5.122;2023-07-31T08:23:03;17.76;99.99
67275;DHT22;55463;52.324;5.122;2023-07-31T08:25:29;17.79;99.99
67275;DHT22;55463;52.324;5.122;2023-07-31T08:27:55;17.76;99.99
67275;DHT22;55463;52.324;5.122;2023-07-31T08:30:21;17.79;99.99
67275;DHT22;55463;52.324;5.122;2023-07-31T08:32:46;17.83;99.99
67275;DHT22;55463;52.324;5.122;2023-07-31T08:35:11;17.86;99.99
67275;DHT22;55463;52.324;5.122;2023-07-31T08:37:38;17.86;99.99
67275;DHT22;55463;52.324;5.122;2023-07-31T08:40:04;17.87;99.99
67275;DHT22;55463;52.324;5.122;2023-07-31T08:42:30;17.89;99.99
67275;DHT22;55463;52.324;5.122;2023-07-31T08:44:56;17.94;99.99
67275;DHT22;55463;52.324;5.122;2023-07-31T08:47:22;17.94;99.99
67275;DHT22;55463;52.324;5.122;2023-07-31T08:49:49;17.98;99.99
67275;DHT22;55463;52.324;5.122;2023-07-31T08:52:15;18.11;99.99
67275;DHT22;55463;52.324;5.122;2023-07-31T08:54:40;18.15;99.99
67275;DHT22;55463;52.324;5.122;2023-07-31T08:57:09;18.17;99.99
67275;DHT22;55463;52.324;5.122;2023-07-31T08:59:39;18.18;99.99
67275;DHT22;55463;52.324;5.122;2023-07-31T09:02:07;18.21;99.99
67275;DHT22;55463;52.324;5.122;2023-07-31T09:04:33;18.19;99.99
67275;DHT22;55463;52.324;5.122;2023-07-31T09:07:03;18.22;99.99
67275;DHT22;55463;52.324;5.122;2023-07-31T09:09:30;18.21;99.99
67275;DHT22;55463;52.324;5.122;2023-07-31T09:11:57;18.22;99.99
67275;DHT22;55463;52.324;5.122;2023-07-31T09:14:25;18.22;99.99
67275;DHT22;55463;52.324;5.122;2023-07-31T09:16:55;18.27;99.99
67275;DHT22;55463;52.324;5.122;2023-07-31T09:19:32;18.29;99.99
67275;DHT22;55463;52.324;5.122;2023-07-31T09:21:59;18.29;99.99
67275;DHT22;55463;52.324;5.122;2023-07-31T09:24:29;18.31;99.99
67275;DHT22;55463;52.324;5.122;2023-07-31T09:26:56;18.32;99.99
67275;DHT22;55463;52.324;5.122;2023-07-31T09:29:22;18.35;99.99
67275;DHT22;55463;52.324;5.122;2023-07-31T09:31:47;18.39;99.99
67275;DHT22;55463;52.324;5.122;2023-07-31T09:34:13;18.44;99.99
67275;DHT22;55463;52.324;5.122;2023-07-31T09:37:03;18.52;99.99
67275;DHT22;55463;52.324;5.122;2023-07-31T09:39:29;18.57;99.99
67275;DHT22;55463;52.324;5.122;2023-07-31T09:41:55;18.62;99.99
67275;DHT22;55463;52.324;5.122;2023-07-31T09:44:21;18.60;99.99
67275;DHT22;55463;52.324;5.122;2023-07-31T09:46:47;18.62;99.99
67275;DHT22;55463;52.324;5.122;2023-07-31T09:49:14;18.59;99.99
67275;DHT22;55463;52.324;5.122;2023-07-31T09:51:42;18.63;99.99
67275;DHT22;55463;52.324;5.122;2023-07-31T09:54:11;18.63;99.99
67275;DHT22;55463;52.324;5.122;2023-07-31T09:56:47;18.70;99.99
67275;DHT22;55463;52.324;5.122;2023-07-31T09:59:18;18.70;99.99
67275;DHT22;55463;52.324;5.122;2023-07-31T10:01:45;18.73;99.99
67275;DHT22;55463;52.324;5.122;2023-07-31T10:04:12;18.74;99.99
67275;DHT22;55463;52.324;5.122;2023-07-31T10:06:38;18.73;99.99
67275;DHT22;55463;52.324;5.122;2023-07-31T10:09:09;18.74;99.99
67275;DHT22;55463;52.324;5.122;2023-07-31T10:11:41;18.84;99.99
67275;DHT22;55463;52.324;5.122;2023-07-31T10:14:11;18.97;99.99
67275;DHT22;55463;52.324;5.122;2023-07-31T10:16:38;18.96;99.99
67275;DHT22;55463;52.324;5.122;2023-07-31T10:19:05;18.98;99.99
67275;DHT22;55463;52.324;5.122;2023-07-31T10:21:31;19.03;99.99
67275;DHT22;55463;52.324;5.122;2023-07-31T10:24:03;19.10;99.99
67275;DHT22;55463;52.324;5.122;2023-07-31T10:26:29;19.18;99.99
67275;DHT22;55463;52.324;5.122;2023-07-31T10:28:56;19.35;99.99
67275;DHT22;55463;52.324;5.122;2023-07-31T10:31:22;19.55;99.99
67275;DHT22;55463;52.324;5.122;2023-07-31T10:33:48;19.53;99.99
67275;DHT22;55463;52.324;5.122;2023-07-31T10:36:17;19.56;99.78
67275;DHT22;55463;52.324;5.122;2023-07-31T10:38:42;19.59;99.13
67275;DHT22;55463;52.324;5.122;2023-07-31T10:41:11;19.52;98.76
67275;DHT22;55463;52.324;5.122;2023-07-31T10:43:37;19.42;99.34
67275;DHT22;55463;52.324;5.122;2023-07-31T10:46:11;19.31;99.85
67275;DHT22;55463;52.324;5.122;2023-07-31T10:48:38;19.22;99.99
67275;DHT22;55463;52.324;5.122;2023-07-31T10:51:11;19.15;99.99
67275;DHT22;55463;52.324;5.122;2023-07-31T10:53:40;19.19;99.99
67275;DHT22;55463;52.324;5.122;2023-07-31T10:56:10;19.31;99.99
67275;DHT22;55463;52.324;5.122;2023-07-31T10:58:43;19.35;99.99
67275;DHT22;55463;52.324;5.122;2023-07-31T11:01:09;19.41;99.99
67275;DHT22;55463;52.324;5.122;2023-07-31T11:03:48;19.39;99.99
67275;DHT22;55463;52.324;5.122;2023-07-31T11:06:20;19.34;99.61
67275;DHT22;55463;52.324;5.122;2023-07-31T11:08:48;19.31;99.54
67275;DHT22;55463;52.324;5.122;2023-07-31T11:11:16;19.42;99.99
67275;DHT22;55463;52.324;5.122;2023-07-31T11:13:46;19.48;99.94
67275;DHT22;55463;52.324;5.122;2023-07-31T11:16:27;19.49;99.99
67275;DHT22;55463;52.324;5.122;2023-07-31T11:18:53;19.49;99.99
67275;DHT22;55463;52.324;5.122;2023-07-31T11:21:22;19.45;99.66
67275;DHT22;55463;52.324;5.122;2023-07-31T11:23:49;19.42;99.77
67275;DHT22;55463;52.324;5.122;2023-07-31T11:26:15;19.42;99.71
67275;DHT22;55463;52.324;5.122;2023-07-31T11:28:50;19.41;99.47
67275;DHT22;55463;52.324;5.122;2023-07-31T11:31:17;19.41;99.33
67275;DHT22;55463;52.324;5.122;2023-07-31T11:33:43;19.39;99.46
67275;DHT22;55463;52.324;5.122;2023-07-31T11:36:20;19.41;99.41
67275;DHT22;55463;52.324;5.122;2023-07-31T11:39:13;19.45;99.71
67275;DHT22;55463;52.324;5.122;2023-07-31T11:41:40;19.56;99.18
67275;DHT22;55463;52.324;5.122;2023-07-31T11:44:06;19.59;98.94
67275;DHT22;55463;52.324;5.122;2023-07-31T11:46:32;19.63;98.62
67275;DHT22;55463;52.324;5.122;2023-07-31T11:49:07;19.66;98.26
67275;DHT22;55463;52.324;5.122;2023-07-31T11:51:32;19.61;98.30
67275;DHT22;55463;52.324;5.122;2023-07-31T11:54:00;19.61;98.42
67275;DHT22;55463;52.324;5.122;2023-07-31T11:56:26;19.55;97.61
67275;DHT22;55463;52.324;5.122;2023-07-31T11:58:57;19.56;97.88
67275;DHT22;55463;52.324;5.122;2023-07-31T12:01:32;19.53;97.74
67275;DHT22;55463;52.324;5.122;2023-07-31T12:03:58;19.58;98.59
67275;DHT22;55463;52.324;5.122;2023-07-31T12:06:33;19.62;98.43
67275;DHT22;55463;52.324;5.122;2023-07-31T12:09:05;19.62;97.55
67275;DHT22;55463;52.324;5.122;2023-07-31T12:11:44;19.63;97.45
67275;DHT22;55463;52.324;5.122;2023-07-31T12:14:28;19.63;97.88
67275;DHT22;55463;52.324;5.122;2023-07-31T12:16:59;19.67;97.82
67275;DHT22;55463;52.324;5.122;2023-07-31T12:19:32;19.76;98.04
67275;DHT22;55463;52.324;5.122;2023-07-31T12:22:10;19.73;97.79
67275;DHT22;55463;52.324;5.122;2023-07-31T12:24:36;19.69;97.51
67275;DHT22;55463;52.324;5.122;2023-07-31T12:27:32;19.84;98.06
67275;DHT22;55463;52.324;5.122;2023-07-31T12:30:00;19.84;97.69
67275;DHT22;55463;52.324;5.122;2023-07-31T12:32:25;19.89;96.91
67275;DHT22;55463;52.324;5.122;2023-07-31T12:34:53;19.91;97.23
67275;DHT22;55463;52.324;5.122;2023-07-31T12:37:34;20.07;96.60
67275;DHT22;55463;52.324;5.122;2023-07-31T12:39:59;20.13;97.05
67275;DHT22;55463;52.324;5.122;2023-07-31T12:42:30;20.07;95.71
67275;DHT22;55463;52.324;5.122;2023-07-31T12:45:27;20.00;95.48
67275;DHT22;55463;52.324;5.122;2023-07-31T12:47:52;20.04;96.14
67275;DHT22;55463;52.324;5.122;2023-07-31T12:50:17;20.04;96.35
67275;DHT22;55463;52.324;5.122;2023-07-31T12:52:43;20.14;96.56
67275;DHT22;55463;52.324;5.122;2023-07-31T12:55:08;20.15;95.50
67275;DHT22;55463;52.324;5.122;2023-07-31T12:57:57;20.24;96.36
67275;DHT22;55463;52.324;5.122;2023-07-31T13:00:23;20.25;94.96
67275;DHT22;55463;52.324;5.122;2023-07-31T13:02:48;20.22;95.42
67275;DHT22;55463;52.324;5.122;2023-07-31T13:05:14;20.17;95.46
67275;DHT22;55463;52.324;5.122;2023-07-31T13:07:40;20.22;95.26
67275;DHT22;55463;52.324;5.122;2023-07-31T13:10:15;20.20;95.67
67275;DHT22;55463;52.324;5.122;2023-07-31T13:12:42;20.25;95.21
67275;DHT22;55463;52.324;5.122;2023-07-31T13:15:08;20.41;95.63
67275;DHT22;55463;52.324;5.122;2023-07-31T13:17:35;20.63;95.68
67275;DHT22;55463;52.324;5.122;2023-07-31T13:20:00;20.60;93.77
67275;DHT22;55463;52.324;5.122;2023-07-31T13:22:44;20.65;94.01
67275;DHT22;55463;52.324;5.122;2023-07-31T13:25:11;20.69;94.33
67275;DHT22;55463;52.324;5.122;2023-07-31T13:27:37;20.53;94.02
67275;DHT22;55463;52.324;5.122;2023-07-31T13:30:02;20.48;93.85
67275;DHT22;55463;52.324;5.122;2023-07-31T13:32:29;20.46;94.02
67275;DHT22;55463;52.324;5.122;2023-07-31T13:35:01;20.57;94.01
67275;DHT22;55463;52.324;5.122;2023-07-31T13:37:26;20.72;94.03
67275;DHT22;55463;52.324;5.122;2023-07-31T13:39:51;20.86;94.65
67275;DHT22;55463;52.324;5.122;2023-07-31T13:42:17;20.81;94.07
67275;DHT22;55463;52.324;5.122;2023-07-31T13:44:42;20.62;93.53
67275;DHT22;55463;52.324;5.122;2023-07-31T13:47:08;20.55;94.07
67275;DHT22;55463;52.324;5.122;2023-07-31T13:49:36;20.36;94.57
67275;DHT22;55463;52.324;5.122;2023-07-31T13:52:02;20.15;95.35
67275;DHT22;55463;52.324;5.122;2023-07-31T13:54:30;20.00;95.88
67275;DHT22;55463;52.324;5.122;2023-07-31T13:56:56;19.86;96.55
67275;DHT22;55463;52.324;5.122;2023-07-31T13:59:21;19.74;97.67
67275;DHT22;55463;52.324;5.122;2023-07-31T14:01:47;19.72;97.74
67275;DHT22;55463;52.324;5.122;2023-07-31T14:04:15;19.59;98.48
67275;DHT22;55463;52.324;5.122;2023-07-31T14:06:42;19.58;98.65
67275;DHT22;55463;52.324;5.122;2023-07-31T14:09:08;19.55;98.62
67275;DHT22;55463;52.324;5.122;2023-07-31T14:11:34;19.55;98.54
67275;DHT22;55463;52.324;5.122;2023-07-31T14:13:59;19.48;98.66
67275;DHT22;55463;52.324;5.122;2023-07-31T14:16:26;19.49;98.81
67275;DHT22;55463;52.324;5.122;2023-07-31T14:18:52;19.59;99.19
67275;DHT22;55463;52.324;5.122;2023-07-31T14:21:18;19.62;98.83
67275;DHT22;55463;52.324;5.122;2023-07-31T14:23:44;19.67;98.85
67275;DHT22;55463;52.324;5.122;2023-07-31T14:26:10;19.73;98.89
67275;DHT22;55463;52.324;5.122;2023-07-31T14:28:35;19.76;99.02
67275;DHT22;55463;52.324;5.122;2023-07-31T14:31:00;19.72;98.21
67275;DHT22;55463;52.324;5.122;2023-07-31T14:33:26;19.73;98.51
67275;DHT22;55463;52.324;5.122;2023-07-31T14:35:52;19.74;98.65
67275;DHT22;55463;52.324;5.122;2023-07-31T14:38:17;19.69;98.06
67275;DHT22;55463;52.324;5.122;2023-07-31T14:40:42;19.67;97.92
67275;DHT22;55463;52.324;5.122;2023-07-31T14:43:08;19.65;97.90
67275;DHT22;55463;52.324;5.122;2023-07-31T14:45:33;19.61;98.12
67275;DHT22;55463;52.324;5.122;2023-07-31T14:47:59;19.59;98.02
67275;DHT22;55463;52.324;5.122;2023-07-31T14:50:25;19.63;98.03
67275;DHT22;55463;52.324;5.122;2023-07-31T14:52:50;19.65;98.20
67275;DHT22;55463;52.324;5.122;2023-07-31T14:55:19;19.62;98.24
67275;DHT22;55463;52.324;5.122;2023-07-31T14:57:44;19.62;97.85
67275;DHT22;55463;52.324;5.122;2023-07-31T15:00:10;19.59;98.43
67275;DHT22;55463;52.324;5.122;2023-07-31T15:02:38;19.59;98.49
67275;DHT22;55463;52.324;5.122;2023-07-31T15:05:05;19.56;98.45
67275;DHT22;55463;52.324;5.122;2023-07-31T15:07:30;19.46;98.46
67275;DHT22;55463;52.324;5.122;2023-07-31T15:09:56;19.46;98.67
67275;DHT22;55463;52.324;5.122;2023-07-31T15:12:21;19.39;98.87
67275;DHT22;55463;52.324;5.122;2023-07-31T15:14:48;19.39;98.92
67275;DHT22;55463;52.324;5.122;2023-07-31T15:17:14;19.34;99.27
67275;DHT22;55463;52.324;5.122;2023-07-31T15:19:39;19.28;99.35
67275;DHT22;55463;52.324;5.122;2023-07-31T15:22:05;19.29;99.27
67275;DHT22;55463;52.324;5.122;2023-07-31T15:24:31;19.24;98.97
67275;DHT22;55463;52.324;5.122;2023-07-31T15:26:56;19.12;99.20
67275;DHT22;55463;52.324;5.122;2023-07-31T15:29:21;19.12;99.19
67275;DHT22;55463;52.324;5.122;2023-07-31T15:31:47;19.04;99.09